sensor_id;sensor_type;location;lat;lon;timestamp;pressure;altitude;pressure_sealevel;temperature;humidity
70304;BME280;57712;48.752;11.348;2023-03-14T00:01:26;95990.16;;;10.44;100.00
70304;BME280;57712;48.752;11.348;2023-03-14T00:03:52;96024.94;;;10.25;100.00
70304;BME280;57712;48.752;11.348;2023-03-14T00:06:19;96045.84;;;10.19;100.00
70304;BME280;57712;48.752;11.348;2023-03-14T00:08:46;96081.13;;;10.17;100.00
70304;BME280;57712;48.752;11.348;2023-03-14T00:11:17;96084.31;;;10.15;100.00
70304;BME280;57712;48.752;11.348;2023-03-14T00:13:50;96064.22;;;10.09;100.00
70304;BME280;57712;48.752;11.348;2023-03-14T00:16:17;96046.06;;;9.93;100.00
70304;BME280;57712;48.752;11.348;2023-03-14T00:18:44;96035.25;;;9.90;100.00
70304;BME280;57712;48.752;11.348;2023-03-14T00:21:11;96021.53;;;9.71;100.00
70304;BME280;57712;48.752;11.348;2023-03-14T00:23:39;95980.22;;;9.78;100.00
70304;BME280;57712;48.752;11.348;2023-03-14T00:26:12;95970.88;;;9.58;100.00
70304;BME280;57712;48.752;11.348;2023-03-14T00:28:40;95960.69;;;9.49;100.00
70304;BME280;57712;48.752;11.348;2023-03-14T00:31:09;95959.72;;;9.43;100.00
70304;BME280;57712;48.752;11.348;2023-03-14T00:33:36;95975.72;;;9.53;100.00
70304;BME280;57712;48.752;11.348;2023-03-14T00:36:05;95978.34;;;9.66;100.00
70304;BME280;57712;48.752;11.348;2023-03-14T00:38:33;95982.59;;;9.67;100.00
70304;BME280;57712;48.752;11.348;2023-03-14T00:41:03;96021.75;;;9.55;100.00
70304;BME280;57712;48.752;11.348;2023-03-14T00:43:29;96005.38;;;9.64;100.00
70304;BME280;57712;48.752;11.348;2023-03-14T00:45:56;95998.56;;;9.69;100.00
70304;BME280;57712;48.752;11.348;2023-03-14T00:48:23;96004.53;;;9.76;100.00
70304;BME280;57712;48.752;11.348;2023-03-14T00:50:50;95989.34;;;9.75;100.00
70304;BME280;57712;48.752;11.348;2023-03-14T00:53:17;95992.97;;;9.72;100.00
70304;BME280;57712;48.752;11.348;2023-03-14T00:55:43;96010.56;;;9.62;100.00
70304;BME280;57712;48.752;11.348;2023-03-14T00:58:11;96036.63;;;9.54;100.00
70304;BME280;57712;48.752;11.348;2023-03-14T01:00:39;96006.25;;;9.52;100.00
70304;BME280;57712;48.752;11.348;2023-03-14T01:03:06;96036.56;;;9.45;100.00
70304;BME280;57712;48.752;11.348;2023-03-14T01:05:33;96030.19;;;9.39;100.00
70304;BME280;57712;48.752;11.348;2023-03-14T01:07:59;96018.59;;;9.35;100.00
70304;BME280;57712;48.752;11.348;2023-03-14T01:10:26;96021.91;;;9.30;100.00
70304;BME280;57712;48.752;11.348;2023-03-14T01:12:53;96030.69;;;9.24;100.00
70304;BME280;57712;48.752;11.348;2023-03-14T01:15:21;96035.28;;;9.28;100.00
70304;BME280;57712;48.752;11.348;2023-03-14T01:17:49;96036.97;;;9.12;100.00
70304;BME280;57712;48.752;11.348;2023-03-14T01:20:16;96027.25;;;9.11;100.00
70304;BME280;57712;48.752;11.348;2023-03-14T01:22:43;96028.91;;;9.09;100.00
70304;BME280;57712;48.752;11.348;2023-03-14T01:25:13;96040.91;;;9.11;100.00
70304;BME280;57712;48.752;11.348;2023-03-14T01:27:40;96036.16;;;9.03;100.00
70304;BME280;57712;48.752;11.348;2023-03-14T01:30:08;96046.31;;;9.02;100.00
70304;BME280;57712;48.752;11.348;2023-03-14T01:32:35;96043.13;;;9.04;100.00
70304;BME280;57712;48.752;11.348;2023-03-14T01:35:01;96052.00;;;8.95;100.00
70304;BME280;57712;48.752;11.348;2023-03-14T01:37:28;96029.84;;;8.93;100.00
70304;BME280;57712;48.752;11.348;2023-03-14T01:39:54;96027.38;;;8.86;100.00
70304;BME280;57712;48.752;11.348;2023-03-14T01:42:24;95995.38;;;8.86;100.00
70304;BME280;57712;48.752;11.348;2023-03-14T01:47:17;95948.56;;;8.97;100.00
70304;BME280;57712;48.752;11.348;2023-03-14T01:49:46;95949.00;;;8.95;100.00
70304;BME280;57712;48.752;11.348;2023-03-14T01:52:17;95933.75;;;9.07;100.00
70304;BME280;57712;48.752;11.348;2023-03-14T01:54:49;95933.13;;;9.03;100.00
70304;BME280;57712;48.752;11.348;2023-03-14T01:57:23;95919.47;;;9.03;100.00
70304;BME280;57712;48.752;11.348;2023-03-14T01:59:55;95911.66;;;8.92;100.00
70304;BME280;57712;48.752;11.348;2023-03-14T02:02:24;95883.59;;;8.92;100.00
70304;BME280;57712;48.752;11.348;2023-03-14T02:04:54;95862.00;;;8.76;100.00
70304;BME280;57712;48.752;11.348;2023-03-14T02:07:25;95884.41;;;8.71;100.00
70304;BME280;57712;48.752;11.348;2023-03-14T02:10:02;95910.16;;;8.70;100.00
70304;BME280;57712;48.752;11.348;2023-03-14T02:12:29;95915.31;;;8.67;100.00
70304;BME280;57712;48.752;11.348;2023-03-14T02:14:56;95907.44;;;8.70;100.00
70304;BME280;57712;48.752;11.348;2023-03-14T02:17:23;95890.81;;;8.77;100.00
70304;BME280;57712;48.752;11.348;2023-03-14T02:20:03;95892.44;;;8.74;100.00
70304;BME280;57712;48.752;11.348;2023-03-14T02:22:33;95905.59;;;8.66;100.00
70304;BME280;57712;48.752;11.348;2023-03-14T02:25:11;95910.41;;;8.62;100.00
70304;BME280;57712;48.752;11.348;2023-03-14T02:27:41;95903.75;;;8.63;100.00
70304;BME280;57712;48.752;11.348;2023-03-14T02:30:13;95897.72;;;8.68;100.00
70304;BME280;57712;48.752;11.348;2023-03-14T02:32:45;95901.03;;;8.63;100.00
70304;BME280;57712;48.752;11.348;2023-03-14T02:35:17;95901.66;;;8.67;100.00
70304;BME280;57712;48.752;11.348;2023-03-14T02:37:53;95903.81;;;8.73;100.00
70304;BME280;57712;48.752;11.348;2023-03-14T02:40:21;95921.09;;;8.70;100.00
70304;BME280;57712;48.752;11.348;2023-03-14T02:42:48;95945.34;;;8.67;100.00
70304;BME280;57712;48.752;11.348;2023-03-14T02:47:47;95962.97;;;8.54;100.00
70304;BME280;57712;48.752;11.348;2023-03-14T02:50:20;95951.03;;;8.60;100.00
70304;BME280;57712;48.752;11.348;2023-03-14T02:52:48;95941.53;;;8.65;100.00
70304;BME280;57712;48.752;11.348;2023-03-14T02:55:14;95941.88;;;8.54;100.00
70304;BME280;57712;48.752;11.348;2023-03-14T02:57:41;95929.78;;;8.55;100.00
70304;BME280;57712;48.752;11.348;2023-03-14T03:00:08;95936.44;;;8.54;100.00
70304;BME280;57712;48.752;11.348;2023-03-14T03:02:35;95918.59;;;8.62;100.00
70304;BME280;57712;48.752;11.348;2023-03-14T03:05:01;95918.59;;;8.62;100.00
70304;BME280;57712;48.752;11.348;2023-03-14T03:07:28;95916.19;;;8.64;100.00
70304;BME280;57712;48.752;11.348;2023-03-14T03:09:54;95908.28;;;8.57;100.00
70304;BME280;57712;48.752;11.348;2023-03-14T03:12:21;95919.25;;;8.66;100.00
70304;BME280;57712;48.752;11.348;2023-03-14T03:14:48;95906.53;;;8.73;100.00
70304;BME280;57712;48.752;11.348;2023-03-14T03:17:14;95917.16;;;8.71;100.00
70304;BME280;57712;48.752;11.348;2023-03-14T03:19:41;95910.03;;;8.73;100.00
70304;BME280;57712;48.752;11.348;2023-03-14T03:22:07;95902.28;;;8.72;100.00
70304;BME280;57712;48.752;11.348;2023-03-14T03:24:34;95898.34;;;8.73;100.00
70304;BME280;57712;48.752;11.348;2023-03-14T03:27:01;95893.34;;;8.71;100.00
70304;BME280;57712;48.752;11.348;2023-03-14T03:29:27;95882.28;;;8.75;100.00
70304;BME280;57712;48.752;11.348;2023-03-14T03:31:54;95877.16;;;8.77;100.00
70304;BME280;57712;48.752;11.348;2023-03-14T03:34:20;95879.56;;;8.75;100.00
70304;BME280;57712;48.752;11.348;2023-03-14T03:36:47;95879.56;;;8.75;100.00
70304;BME280;57712;48.752;11.348;2023-03-14T03:39:13;95879.25;;;8.73;100.00
70304;BME280;57712;48.752;11.348;2023-03-14T03:41:40;95880.59;;;8.68;100.00
70304;BME280;57712;48.752;11.348;2023-03-14T03:44:07;95884.09;;;8.68;100.00
70304;BME280;57712;48.752;11.348;2023-03-14T03:46:33;95876.56;;;8.82;100.00
70304;BME280;57712;48.752;11.348;2023-03-14T03:49:00;95882.16;;;8.78;100.00
70304;BME280;57712;48.752;11.348;2023-03-14T03:51:26;95868.53;;;8.78;100.00
70304;BME280;57712;48.752;11.348;2023-03-14T03:53:53;95873.22;;;8.78;100.00
70304;BME280;57712;48.752;11.348;2023-03-14T03:56:20;95871.06;;;8.73;100.00
70304;BME280;57712;48.752;11.348;2023-03-14T03:58:46;95873.63;;;8.67;100.00
70304;BME280;57712;48.752;11.348;2023-03-14T04:01:13;95867.72;;;8.68;100.00
70304;BME280;57712;48.752;11.348;2023-03-14T04:03:39;95848.34;;;8.54;100.00
70304;BME280;57712;48.752;11.348;2023-03-14T04:06:12;95856.28;;;8.61;100.00
70304;BME280;57712;48.752;11.348;2023-03-14T04:08:39;95846.81;;;8.53;100.00
70304;BME280;57712;48.752;11.348;2023-03-14T04:11:07;95849.75;;;8.58;100.00
70304;BME280;57712;48.752;11.348;2023-03-14T04:13:34;95837.00;;;8.55;100.00
70304;BME280;57712;48.752;11.348;2023-03-14T04:16:01;95831.97;;;8.54;100.00
70304;BME280;57712;48.752;11.348;2023-03-14T04:18:27;95841.81;;;8.51;100.00
70304;BME280;57712;48.752;11.348;2023-03-14T04:20:57;95839.72;;;8.55;100.00
70304;BME280;57712;48.752;11.348;2023-03-14T04:23:25;95853.69;;;8.57;100.00
70304;BME280;57712;48.752;11.348;2023-03-14T04:25:52;95845.56;;;8.66;100.00
70304;BME280;57712;48.752;11.348;2023-03-14T04:28:19;95848.84;;;8.61;100.00
70304;BME280;57712;48.752;11.348;2023-03-14T04:30:46;95841.88;;;8.60;100.00
70304;BME280;57712;48.752;11.348;2023-03-14T04:33:12;95846.19;;;8.71;100.00
70304;BME280;57712;48.752;11.348;2023-03-14T04:35:44;95855.56;;;8.70;100.00
70304;BME280;57712;48.752;11.348;2023-03-14T04:38:11;95860.53;;;8.62;100.00
70304;BME280;57712;48.752;11.348;2023-03-14T04:40:39;95857.25;;;8.67;100.00
70304;BME280;57712;48.752;11.348;2023-03-14T04:43:07;95861.94;;;8.66;100.00
70304;BME280;57712;48.752;11.348;2023-03-14T04:45:33;95859.91;;;8.58;100.00
70304;BME280;57712;48.752;11.348;2023-03-14T04:48:00;95851.59;;;8.61;100.00
70304;BME280;57712;48.752;11.348;2023-03-14T04:50:27;95840.34;;;8.59;100.00
70304;BME280;57712;48.752;11.348;2023-03-14T04:52:53;95830.00;;;8.54;100.00
70304;BME280;57712;48.752;11.348;2023-03-14T04:55:20;95828.06;;;8.55;100.00
70304;BME280;57712;48.752;11.348;2023-03-14T04:57:52;95826.09;;;8.55;100.00
70304;BME280;57712;48.752;11.348;2023-03-14T05:00:20;95820.00;;;8.51;100.00
70304;BME280;57712;48.752;11.348;2023-03-14T05:02:46;95823.91;;;8.50;100.00
70304;BME280;57712;48.752;11.348;2023-03-14T05:05:13;95818.78;;;8.52;100.00
70304;BME280;57712;48.752;11.348;2023-03-14T05:07:39;95810.72;;;8.49;100.00
70304;BME280;57712;48.752;11.348;2023-03-14T05:10:06;95798.16;;;8.51;100.00
70304;BME280;57712;48.752;11.348;2023-03-14T05:12:33;95802.03;;;8.41;100.00
70304;BME280;57712;48.752;11.348;2023-03-14T05:14:59;95794.91;;;8.44;100.00
70304;BME280;57712;48.752;11.348;2023-03-14T05:17:29;95790.38;;;8.41;100.00
70304;BME280;57712;48.752;11.348;2023-03-14T05:19:55;95788.72;;;8.43;100.00
70304;BME280;57712;48.752;11.348;2023-03-14T05:22:22;95770.69;;;8.46;100.00
70304;BME280;57712;48.752;11.348;2023-03-14T05:24:49;95772.06;;;8.50;100.00
70304;BME280;57712;48.752;11.348;2023-03-14T05:27:15;95784.16;;;8.40;100.00
70304;BME280;57712;48.752;11.348;2023-03-14T05:29:44;95774.75;;;8.41;100.00
70304;BME280;57712;48.752;11.348;2023-03-14T05:32:10;95786.56;;;8.38;100.00
70304;BME280;57712;48.752;11.348;2023-03-14T05:34:37;95776.56;;;8.35;100.00
70304;BME280;57712;48.752;11.348;2023-03-14T05:37:03;95792.16;;;8.34;100.00
70304;BME280;57712;48.752;11.348;2023-03-14T05:39:30;95778.06;;;8.36;100.00
70304;BME280;57712;48.752;11.348;2023-03-14T05:41:56;95777.75;;;8.34;100.00
70304;BME280;57712;48.752;11.348;2023-03-14T05:44:23;95784.00;;;8.44;100.00
70304;BME280;57712;48.752;11.348;2023-03-14T05:46:50;95768.91;;;8.30;100.00
70304;BME280;57712;48.752;11.348;2023-03-14T05:49:17;95777.03;;;8.21;100.00
70304;BME280;57712;48.752;11.348;2023-03-14T05:51:43;95772.22;;;8.25;100.00
70304;BME280;57712;48.752;11.348;2023-03-14T05:54:09;95765.41;;;8.29;100.00
70304;BME280;57712;48.752;11.348;2023-03-14T05:56:36;95760.94;;;8.35;100.00
70304;BME280;57712;48.752;11.348;2023-03-14T05:59:02;95755.56;;;8.32;100.00
70304;BME280;57712;48.752;11.348;2023-03-14T06:01:29;95754.97;;;8.28;100.00
70304;BME280;57712;48.752;11.348;2023-03-14T06:03:56;95753.69;;;8.20;100.00
70304;BME280;57712;48.752;11.348;2023-03-14T06:06:23;95753.13;;;8.25;100.00
70304;BME280;57712;48.752;11.348;2023-03-14T06:08:49;95738.09;;;8.20;100.00
70304;BME280;57712;48.752;11.348;2023-03-14T06:11:16;95742.47;;;8.18;100.00
70304;BME280;57712;48.752;11.348;2023-03-14T06:13:43;95730.97;;;8.23;100.00
70304;BME280;57712;48.752;11.348;2023-03-14T06:16:09;95745.41;;;8.32;100.00
70304;BME280;57712;48.752;11.348;2023-03-14T06:18:36;95749.31;;;8.22;100.00
70304;BME280;57712;48.752;11.348;2023-03-14T06:21:03;95736.75;;;8.25;100.00
70304;BME280;57712;48.752;11.348;2023-03-14T06:23:30;95750.25;;;8.28;100.00
70304;BME280;57712;48.752;11.348;2023-03-14T06:25:58;95743.44;;;8.24;100.00
70304;BME280;57712;48.752;11.348;2023-03-14T06:28:24;95747.97;;;8.27;100.00
70304;BME280;57712;48.752;11.348;2023-03-14T06:30:51;95736.47;;;8.32;100.00
70304;BME280;57712;48.752;11.348;2023-03-14T06:33:18;95739.88;;;8.36;100.00
70304;BME280;57712;48.752;11.348;2023-03-14T06:35:45;95744.56;;;8.35;100.00
70304;BME280;57712;48.752;11.348;2023-03-14T06:38:11;95743.81;;;8.35;100.00
70304;BME280;57712;48.752;11.348;2023-03-14T06:40:38;95745.69;;;8.47;100.00
70304;BME280;57712;48.752;11.348;2023-03-14T06:43:04;95747.09;;;8.30;100.00
70304;BME280;57712;48.752;11.348;2023-03-14T06:45:30;95743.22;;;8.40;100.00
70304;BME280;57712;48.752;11.348;2023-03-14T06:47:57;95745.34;;;8.36;100.00
70304;BME280;57712;48.752;11.348;2023-03-14T06:50:23;95744.78;;;8.50;100.00
70304;BME280;57712;48.752;11.348;2023-03-14T06:52:50;95732.22;;;8.53;100.00
70304;BME280;57712;48.752;11.348;2023-03-14T06:55:17;95743.53;;;8.42;100.00
70304;BME280;57712;48.752;11.348;2023-03-14T06:57:47;95747.31;;;8.66;100.00
70304;BME280;57712;48.752;11.348;2023-03-14T07:00:17;95744.31;;;8.83;100.00
70304;BME280;57712;48.752;11.348;2023-03-14T07:02:43;95735.81;;;8.81;100.00
70304;BME280;57712;48.752;11.348;2023-03-14T07:05:10;95745.31;;;9.07;100.00
70304;BME280;57712;48.752;11.348;2023-03-14T07:07:36;95739.16;;;8.76;100.00
70304;BME280;57712;48.752;11.348;2023-03-14T07:10:03;95751.25;;;8.65;100.00
70304;BME280;57712;48.752;11.348;2023-03-14T07:12:30;95749.50;;;8.90;100.00
70304;BME280;57712;48.752;11.348;2023-03-14T07:14:57;95747.34;;;8.85;100.00
70304;BME280;57712;48.752;11.348;2023-03-14T07:17:37;95760.84;;;8.79;100.00
70304;BME280;57712;48.752;11.348;2023-03-14T07:20:04;95761.19;;;8.90;100.00
70304;BME280;57712;48.752;11.348;2023-03-14T07:22:33;95774.41;;;9.01;100.00
70304;BME280;57712;48.752;11.348;2023-03-14T07:25:00;95766.78;;;8.87;100.00
70304;BME280;57712;48.752;11.348;2023-03-14T07:27:27;95771.31;;;8.81;100.00
70304;BME280;57712;48.752;11.348;2023-03-14T07:29:53;95784.38;;;8.86;100.00
70304;BME280;57712;48.752;11.348;2023-03-14T07:32:20;95798.69;;;8.99;100.00
70304;BME280;57712;48.752;11.348;2023-03-14T07:34:46;95795.00;;;8.93;100.00
70304;BME280;57712;48.752;11.348;2023-03-14T07:37:13;95799.41;;;8.90;100.00
70304;BME280;57712;48.752;11.348;2023-03-14T07:39:40;95792.16;;;9.06;100.00
70304;BME280;57712;48.752;11.348;2023-03-14T07:42:06;95800.69;;;9.17;100.00
70304;BME280;57712;48.752;11.348;2023-03-14T07:44:33;95800.28;;;9.18;100.00
70304;BME280;57712;48.752;11.348;2023-03-14T07:46:59;95793.25;;;9.08;100.00
70304;BME280;57712;48.752;11.348;2023-03-14T07:49:26;95802.94;;;9.00;100.00
70304;BME280;57712;48.752;11.348;2023-03-14T07:51:53;95793.88;;;9.12;100.00
70304;BME280;57712;48.752;11.348;2023-03-14T07:54:20;95799.75;;;9.02;100.00
70304;BME280;57712;48.752;11.348;2023-03-14T07:56:46;95798.75;;;9.26;100.00
70304;BME280;57712;48.752;11.348;2023-03-14T07:59:13;95794.19;;;9.23;100.00
70304;BME280;57712;48.752;11.348;2023-03-14T08:01:40;95790.28;;;9.34;100.00
70304;BME280;57712;48.752;11.348;2023-03-14T08:04:06;95790.56;;;9.36;100.00
70304;BME280;57712;48.752;11.348;2023-03-14T08:06:35;95788.47;;;9.31;100.00
70304;BME280;57712;48.752;11.348;2023-03-14T08:09:02;95780.56;;;9.33;100.00
70304;BME280;57712;48.752;11.348;2023-03-14T08:11:28;95792.84;;;9.28;100.00
70304;BME280;57712;48.752;11.348;2023-03-14T08:13:55;95793.00;;;9.34;100.00
70304;BME280;57712;48.752;11.348;2023-03-14T08:16:22;95788.78;;;9.42;100.00
70304;BME280;57712;48.752;11.348;2023-03-14T08:18:48;95787.41;;;9.46;100.00
70304;BME280;57712;48.752;11.348;2023-03-14T08:21:15;95786.31;;;9.35;100.00
70304;BME280;57712;48.752;11.348;2023-03-14T08:23:42;95780.59;;;9.51;100.00
70304;BME280;57712;48.752;11.348;2023-03-14T08:26:08;95770.56;;;9.48;100.00
70304;BME280;57712;48.752;11.348;2023-03-14T08:28:35;95770.91;;;9.59;100.00
70304;BME280;57712;48.752;11.348;2023-03-14T08:31:02;95761.16;;;9.67;100.00
70304;BME280;57712;48.752;11.348;2023-03-14T08:33:29;95758.41;;;9.67;100.00
70304;BME280;57712;48.752;11.348;2023-03-14T08:35:58;95760.25;;;9.70;100.00
70304;BME280;57712;48.752;11.348;2023-03-14T08:38:28;95762.50;;;9.99;100.00
70304;BME280;57712;48.752;11.348;2023-03-14T08:40:59;95756.91;;;10.03;100.00
70304;BME280;57712;48.752;11.348;2023-03-14T08:43:26;95766.00;;;10.09;100.00
70304;BME280;57712;48.752;11.348;2023-03-14T08:45:53;95758.41;;;10.13;100.00
70304;BME280;57712;48.752;11.348;2023-03-14T08:48:23;95764.47;;;10.17;100.00
70304;BME280;57712;48.752;11.348;2023-03-14T08:50:49;95762.78;;;10.38;100.00
70304;BME280;57712;48.752;11.348;2023-03-14T08:53:16;95764.19;;;10.24;100.00
70304;BME280;57712;48.752;11.348;2023-03-14T08:55:43;95772.38;;;10.43;100.00
70304;BME280;57712;48.752;11.348;2023-03-14T08:58:09;95772.63;;;10.63;100.00
70304;BME280;57712;48.752;11.348;2023-03-14T09:00:36;95768.91;;;10.33;100.00
70304;BME280;57712;48.752;11.348;2023-03-14T09:03:02;95760.50;;;10.36;100.00
70304;BME280;57712;48.752;11.348;2023-03-14T09:05:32;95766.81;;;10.61;100.00
70304;BME280;57712;48.752;11.348;2023-03-14T09:07:59;95754.69;;;10.95;100.00
70304;BME280;57712;48.752;11.348;2023-03-14T09:10:26;95759.81;;;10.69;100.00
70304;BME280;57712;48.752;11.348;2023-03-14T09:12:52;95756.47;;;10.74;100.00
70304;BME280;57712;48.752;11.348;2023-03-14T09:15:19;95770.53;;;10.39;100.00
70304;BME280;57712;48.752;11.348;2023-03-14T09:17:45;95752.81;;;10.68;100.00
70304;BME280;57712;48.752;11.348;2023-03-14T09:20:12;95749.97;;;10.95;100.00
70304;BME280;57712;48.752;11.348;2023-03-14T09:22:40;95761.25;;;10.88;100.00
70304;BME280;57712;48.752;11.348;2023-03-14T09:25:07;95752.22;;;10.64;100.00
70304;BME280;57712;48.752;11.348;2023-03-14T09:27:34;95758.81;;;10.90;100.00
70304;BME280;57712;48.752;11.348;2023-03-14T09:30:01;95758.69;;;10.85;100.00
70304;BME280;57712;48.752;11.348;2023-03-14T09:32:27;95752.75;;;10.86;100.00
70304;BME280;57712;48.752;11.348;2023-03-14T09:34:54;95749.66;;;10.93;100.00
70304;BME280;57712;48.752;11.348;2023-03-14T09:37:20;95742.81;;;11.22;100.00
70304;BME280;57712;48.752;11.348;2023-03-14T09:39:47;95755.00;;;11.21;100.00
70304;BME280;57712;48.752;11.348;2023-03-14T09:42:18;95751.28;;;11.33;100.00
70304;BME280;57712;48.752;11.348;2023-03-14T09:44:54;95753.19;;;11.18;100.00
70304;BME280;57712;48.752;11.348;2023-03-14T09:47:22;95749.94;;;11.28;100.00
70304;BME280;57712;48.752;11.348;2023-03-14T09:49:49;95749.66;;;11.26;100.00
70304;BME280;57712;48.752;11.348;2023-03-14T09:52:39;95744.72;;;11.54;100.00
70304;BME280;57712;48.752;11.348;2023-03-14T09:55:15;95746.72;;;11.78;100.00
70304;BME280;57712;48.752;11.348;2023-03-14T09:57:45;95750.75;;;11.44;100.00
70304;BME280;57712;48.752;11.348;2023-03-14T10:00:17;95738.31;;;11.57;100.00
70304;BME280;57712;48.752;11.348;2023-03-14T10:02:56;95733.19;;;11.50;100.00
70304;BME280;57712;48.752;11.348;2023-03-14T10:05:25;95729.66;;;11.74;100.00
70304;BME280;57712;48.752;11.348;2023-03-14T10:07:51;95729.66;;;11.74;100.00
70304;BME280;57712;48.752;11.348;2023-03-14T10:10:20;95723.56;;;12.08;100.00
70304;BME280;57712;48.752;11.348;2023-03-14T10:12:55;95726.50;;;11.90;100.00
70304;BME280;57712;48.752;11.348;2023-03-14T10:15:26;95729.31;;;11.81;100.00
70304;BME280;57712;48.752;11.348;2023-03-14T10:17:53;95723.84;;;11.57;100.00
70304;BME280;57712;48.752;11.348;2023-03-14T10:20:37;95727.06;;;11.79;100.00
70304;BME280;57712;48.752;11.348;2023-03-14T10:23:05;95721.22;;;12.16;100.00
70304;BME280;57712;48.752;11.348;2023-03-14T10:25:38;95722.56;;;12.21;100.00
70304;BME280;57712;48.752;11.348;2023-03-14T10:28:09;95725.59;;;12.52;100.00
70304;BME280;57712;48.752;11.348;2023-03-14T10:30:41;95732.94;;;12.76;100.00
70304;BME280;57712;48.752;11.348;2023-03-14T10:35:44;95727.16;;;11.85;100.00
70304;BME280;57712;48.752;11.348;2023-03-14T10:38:16;95721.78;;;12.64;100.00
70304;BME280;57712;48.752;11.348;2023-03-14T10:40:47;95717.25;;;12.32;100.00
70304;BME280;57712;48.752;11.348;2023-03-14T10:43:23;95721.59;;;12.38;100.00
70304;BME280;57712;48.752;11.348;2023-03-14T10:46:08;95728.59;;;11.95;100.00
70304;BME280;57712;48.752;11.348;2023-03-14T10:48:37;95725.75;;;12.04;100.00
70304;BME280;57712;48.752;11.348;2023-03-14T10:51:08;95728.59;;;11.95;100.00
70304;BME280;57712;48.752;11.348;2023-03-14T10:53:47;95733.72;;;12.02;100.00
70304;BME280;57712;48.752;11.348;2023-03-14T10:56:19;95735.59;;;11.96;100.00
70304;BME280;57712;48.752;11.348;2023-03-14T10:58:48;95728.41;;;11.99;100.00
70304;BME280;57712;48.752;11.348;2023-03-14T11:04:03;95716.22;;;12.14;100.00
70304;BME280;57712;48.752;11.348;2023-03-14T11:06:41;95715.72;;;12.01;100.00
70304;BME280;57712;48.752;11.348;2023-03-14T11:12:09;95714.59;;;12.52;100.00
70304;BME280;57712;48.752;11.348;2023-03-14T11:14:46;95704.38;;;12.38;100.00
70304;BME280;57712;48.752;11.348;2023-03-14T11:20:32;95700.88;;;12.52;100.00
70304;BME280;57712;48.752;11.348;2023-03-14T11:23:11;95685.72;;;12.42;100.00
70304;BME280;57712;48.752;11.348;2023-03-14T11:26:09;95685.91;;;12.24;100.00
70304;BME280;57712;48.752;11.348;2023-03-14T11:28:41;95688.94;;;12.26;100.00
70304;BME280;57712;48.752;11.348;2023-03-14T11:36:46;95687.22;;;12.93;100.00
70304;BME280;57712;48.752;11.348;2023-03-14T11:39:19;95686.06;;;12.64;100.00
70304;BME280;57712;48.752;11.348;2023-03-14T11:41:50;95681.06;;;12.63;100.00
70304;BME280;57712;48.752;11.348;2023-03-14T11:44:20;95674.16;;;12.88;100.00
70304;BME280;57712;48.752;11.348;2023-03-14T11:50:05;95662.16;;;13.06;100.00
70304;BME280;57712;48.752;11.348;2023-03-14T11:52:54;95652.69;;;13.27;100.00
70304;BME280;57712;48.752;11.348;2023-03-14T11:55:27;95660.91;;;13.07;100.00
70304;BME280;57712;48.752;11.348;2023-03-14T11:58:28;95664.47;;;12.72;100.00
70304;BME280;57712;48.752;11.348;2023-03-14T12:01:03;95661.88;;;12.68;100.00
70304;BME280;57712;48.752;11.348;2023-03-14T12:03:46;95650.84;;;12.63;100.00
70304;BME280;57712;48.752;11.348;2023-03-14T12:09:03;95655.03;;;12.79;100.00
70304;BME280;57712;48.752;11.348;2023-03-14T12:13:58;95654.06;;;12.61;100.00
70304;BME280;57712;48.752;11.348;2023-03-14T12:16:33;95671.03;;;12.45;100.00
70304;BME280;57712;48.752;11.348;2023-03-14T12:19:39;95658.31;;;12.62;100.00
70304;BME280;57712;48.752;11.348;2023-03-14T12:22:25;95666.06;;;12.64;100.00
70304;BME280;57712;48.752;11.348;2023-03-14T12:24:57;95654.22;;;12.73;100.00
70304;BME280;57712;48.752;11.348;2023-03-14T12:27:44;95645.97;;;12.73;100.00
70304;BME280;57712;48.752;11.348;2023-03-14T12:30:33;95652.28;;;12.79;100.00
70304;BME280;57712;48.752;11.348;2023-03-14T12:35:36;95639.72;;;13.27;100.00
70304;BME280;57712;48.752;11.348;2023-03-14T12:38:09;95659.31;;;13.00;100.00
70304;BME280;57712;48.752;11.348;2023-03-14T12:40:40;95641.63;;;13.42;100.00
70304;BME280;57712;48.752;11.348;2023-03-14T12:43:29;95640.19;;;13.26;100.00
70304;BME280;57712;48.752;11.348;2023-03-14T12:48:46;95676.88;;;13.03;100.00
70304;BME280;57712;48.752;11.348;2023-03-14T12:51:16;95661.13;;;13.03;100.00
70304;BME280;57712;48.752;11.348;2023-03-14T12:57:26;95656.97;;;12.73;100.00
70304;BME280;57712;48.752;11.348;2023-03-14T13:05:05;95666.78;;;12.29;100.00
70304;BME280;57712;48.752;11.348;2023-03-14T13:10:20;95661.22;;;12.24;100.00
70304;BME280;57712;48.752;11.348;2023-03-14T13:15:34;95674.16;;;12.38;100.00
70304;BME280;57712;48.752;11.348;2023-03-14T13:18:09;95666.69;;;12.38;100.00
70304;BME280;57712;48.752;11.348;2023-03-14T13:20:40;95686.09;;;12.35;100.00
70304;BME280;57712;48.752;11.348;2023-03-14T13:23:23;95684.69;;;12.10;100.00
70304;BME280;57712;48.752;11.348;2023-03-14T13:25:50;95697.25;;;11.87;100.00
70304;BME280;57712;48.752;11.348;2023-03-14T13:28:17;95708.88;;;11.43;100.00
70304;BME280;57712;48.752;11.348;2023-03-14T13:30:46;95742.63;;;11.02;100.00
70304;BME280;57712;48.752;11.348;2023-03-14T13:33:20;95752.88;;;10.50;100.00
70304;BME280;57712;48.752;11.348;2023-03-14T13:35:58;95764.66;;;10.32;100.00
70304;BME280;57712;48.752;11.348;2023-03-14T13:38:28;95767.84;;;10.12;100.00
70304;BME280;57712;48.752;11.348;2023-03-14T13:40:56;95781.81;;;10.05;100.00
70304;BME280;57712;48.752;11.348;2023-03-14T13:43:32;95767.97;;;9.99;100.00
70304;BME280;57712;48.752;11.348;2023-03-14T13:46:14;95787.59;;;9.89;100.00